Time;durP1;ratioP1;P1;durP2;ratioP2;P2;SDS_P1;SDS_P2;PMS_P1;PMS_P2;Temp;Humidity;BMP_temperature;BMP_pressure;BME280_temperature;BME280_humidity;BME280_pressure;Samples;Min_cycle;Max_cycle;Signal;HPM_P1;HPM_P2
2022/05/27 00:01:21;;;;;;;5.90;2.00;;;12.20;99.90;;;;;;5091489;28;20044;-64
2022/05/27 00:03:49;;;;;;;5.43;1.40;;;12.30;99.90;;;;;;5072013;28;20110;-64
2022/05/27 00:06:16;;;;;;;2.58;1.48;;;12.30;99.90;;;;;;5091707;28;20449;-64
2022/05/27 00:08:43;;;;;;;;;;;12.30;99.90;;;;;;5092228;28;20040;-64
2022/05/27 00:11:10;;;;;;;2.45;1.70;;;12.20;99.90;;;;;;5090844;28;19924;-64
2022/05/27 00:13:36;;;;;;;2.17;1.60;;;12.30;99.90;;;;;;5091695;28;20040;-64
2022/05/27 00:16:03;;;;;;;3.88;1.48;;;12.20;99.90;;;;;;5091820;28;20058;-65
2022/05/27 00:18:30;;;;;;;4.75;1.58;;;12.20;99.90;;;;;;5091419;28;20063;-64
2022/05/27 00:20:58;;;;;;;5.53;1.38;;;12.10;99.90;;;;;;5090492;28;20047;-64
2022/05/27 00:23:24;;;;;;;;;;;12.10;99.90;;;;;;5092011;28;20040;-64
2022/05/27 00:25:51;;;;;;;2.55;1.65;;;12.10;99.90;;;;;;5091675;28;20002;-64
2022/05/27 00:28:18;;;;;;;1.52;1.27;;;12.00;99.90;;;;;;5091102;28;20048;-64
2022/05/27 00:30:45;;;;;;;6.03;1.60;;;12.00;99.90;;;;;;5090956;28;20074;-64
2022/05/27 00:33:12;;;;;;;7.65;2.10;;;12.00;99.90;;;;;;5091317;28;20039;-64
2022/05/27 00:35:39;;;;;;;4.30;1.55;;;12.00;99.90;;;;;;5091315;28;20040;-64
2022/05/27 00:38:06;;;;;;;3.90;1.55;;;12.00;99.90;;;;;;5090483;28;20462;-64
2022/05/27 00:40:39;;;;;;;5.15;1.85;;;11.90;99.90;;;;;;5090772;28;20381;-64
2022/05/27 00:43:06;;;;;;;3.70;1.63;;;11.80;99.90;;;;;;5091610;28;20040;-64
2022/05/27 00:45:36;;;;;;;6.22;1.35;;;11.70;99.90;;;;;;5090371;28;20539;-64
2022/05/27 00:48:07;;;;;;;4.57;1.90;;;11.70;99.90;;;;;;5091269;28;20032;-64
2022/05/27 00:50:40;;;;;;;4.53;1.83;;;11.80;99.90;;;;;;5091022;28;20412;-64
2022/05/27 00:53:09;;;;;;;2.10;1.38;;;11.80;99.90;;;;;;5090395;28;20044;-64
2022/05/27 00:55:46;;;;;;;2.05;1.50;;;11.90;99.90;;;;;;5090924;28;20058;-64
2022/05/27 00:58:43;;;;;;;4.32;1.75;;;11.80;99.90;;;;;;5091317;28;20055;-64
2022/05/27 01:01:12;;;;;;;2.88;1.40;;;11.80;99.90;;;;;;5087151;28;20056;-64
2022/05/27 01:03:38;;;;;;;3.17;1.80;;;11.80;99.90;;;;;;5089966;28;20123;-64
2022/05/27 01:06:06;;;;;;;3.03;1.52;;;11.70;99.90;;;;;;5091317;28;20041;-64
2022/05/27 01:08:33;;;;;;;1.52;1.42;;;11.60;99.90;;;;;;5091214;28;20040;-64
2022/05/27 01:11:12;;;;;;;;;;;11.60;99.90;;;;;;5090149;28;20059;-64
2022/05/27 01:14:11;;;;;;;4.75;1.80;;;11.60;99.90;;;;;;5090912;28;19920;-64
2022/05/27 01:16:52;;;;;;;1.58;1.42;;;11.60;99.90;;;;;;5091215;28;20052;-64
2022/05/27 01:22:54;;;;;;;1.98;1.40;;;11.70;99.90;;;;;;5026297;28;20450;-63
2022/05/27 01:25:43;;;;;;;1.55;1.35;;;11.70;99.90;;;;;;5090880;28;20048;-64
2022/05/27 01:28:12;;;;;;;;;;;11.70;99.90;;;;;;5091632;28;20052;-64
2022/05/27 01:30:56;;;;;;;2.55;1.70;;;11.80;99.90;;;;;;5089376;28;19965;-64
2022/05/27 01:33:22;;;;;;;3.03;1.40;;;11.70;99.90;;;;;;5090917;28;20074;-64
2022/05/27 01:36:33;;;;;;;2.83;1.58;;;11.70;99.90;;;;;;5090783;28;20052;-64
2022/05/27 01:39:22;;;;;;;1.77;1.50;;;11.70;99.90;;;;;;5069497;28;20062;-64
2022/05/27 01:42:16;;;;;;;1.60;1.50;;;11.60;99.90;;;;;;5090320;28;20040;-64
2022/05/27 01:45:07;;;;;;;6.50;1.58;;;11.60;99.90;;;;;;5091119;28;20115;-64
2022/05/27 01:47:59;;;;;;;1.70;1.52;;;11.60;99.90;;;;;;5091478;28;20032;-64
2022/05/27 01:50:28;;;;;;;3.30;1.45;;;11.60;99.90;;;;;;5093871;28;20040;-64
2022/05/27 01:53:07;;;;;;;5.28;1.70;;;11.50;99.90;;;;;;5094684;28;20442;-64
2022/05/27 01:56:04;;;;;;;6.95;1.88;;;11.40;99.90;;;;;;5093356;28;20070;-64
2022/05/27 01:58:40;;;;;;;3.70;1.77;;;11.30;99.90;;;;;;5094060;28;20412;-64
2022/05/27 02:01:12;;;;;;;4.22;1.63;;;11.20;99.90;;;;;;5093655;28;20044;-64
2022/05/27 02:03:51;;;;;;;2.92;1.38;;;11.20;99.90;;;;;;5094291;28;20048;-64
2022/05/27 02:06:41;;;;;;;2.20;1.73;;;11.20;99.90;;;;;;5093751;28;20107;-64
2022/05/27 02:09:14;;;;;;;2.22;1.50;;;11.20;99.90;;;;;;5073890;28;20063;-64
2022/05/27 02:11:43;;;;;;;12.90;1.92;;;11.20;99.90;;;;;;5073274;28;20057;-64
2022/05/27 02:14:25;;;;;;;5.60;1.95;;;11.20;99.90;;;;;;5087397;28;20051;-64
2022/05/27 02:17:02;;;;;;;2.65;1.63;;;11.20;99.90;;;;;;5093952;28;20055;-64
2022/05/27 02:19:45;;;;;;;2.45;1.77;;;11.20;99.90;;;;;;5093864;28;20093;-64
2022/05/27 02:22:27;;;;;;;2.13;1.92;;;11.20;99.90;;;;;;5092786;28;20032;-64
2022/05/27 02:25:11;;;;;;;7.97;1.35;;;11.20;99.90;;;;;;5075915;28;20040;-64
2022/05/27 02:27:51;;;;;;;5.90;1.70;;;11.20;99.90;;;;;;5093743;28;20036;-64
2022/05/27 02:30:22;;;;;;;3.45;1.73;;;11.10;99.90;;;;;;5092548;28;20446;-64
2022/05/27 02:35:44;;;;;;;2.55;1.85;;;10.90;99.90;;;;;;5093575;28;20051;-64
2022/05/27 02:38:11;;;;;;;4.03;1.80;;;10.80;99.90;;;;;;5092335;28;20503;-64
2022/05/27 02:41:02;;;;;;;3.95;1.88;;;10.80;99.90;;;;;;5092795;28;20040;-64
2022/05/27 02:43:57;;;;;;;3.33;1.80;;;10.70;99.90;;;;;;5093563;28;20043;-64
2022/05/27 02:46:45;;;;;;;2.42;1.52;;;10.80;99.90;;;;;;5092335;28;20181;-64
2022/05/27 02:49:29;;;;;;;4.43;1.90;;;10.70;99.90;;;;;;5086895;28;20036;-64
2022/05/27 02:52:14;;;;;;;3.97;1.67;;;10.90;99.90;;;;;;5092952;28;20047;-64
2022/05/27 02:54:56;;;;;;;2.75;1.77;;;10.90;99.90;;;;;;5092117;28;20052;-64
2022/05/27 02:57:30;;;;;;;1.95;1.75;;;11.00;99.90;;;;;;5092975;28;20063;-64
2022/05/27 02:59:58;;;;;;;5.22;1.65;;;11.00;99.90;;;;;;5092764;28;20044;-64
2022/05/27 03:02:24;;;;;;;1.90;1.70;;;11.10;99.90;;;;;;5093003;28;20036;-64
2022/05/27 03:04:55;;;;;;;3.10;1.80;;;11.10;99.90;;;;;;5091691;28;20070;-64
2022/05/27 03:07:40;;;;;;;2.67;1.55;;;11.00;99.90;;;;;;5091619;28;20044;-64
2022/05/27 03:10:25;;;;;;;5.07;1.60;;;11.10;99.90;;;;;;5092490;28;20046;-64
2022/05/27 03:13:37;;;;;;;2.08;1.63;;;11.00;99.90;;;;;;5091738;28;20059;-63
2022/05/27 03:16:32;;;;;;;2.13;1.58;;;11.00;99.90;;;;;;5059133;28;20121;-64
2022/05/27 03:19:11;;;;;;;2.92;1.50;;;11.00;99.90;;;;;;5072498;28;20044;-64
2022/05/27 03:21:52;;;;;;;2.83;1.80;;;11.00;99.90;;;;;;5081016;28;20036;-64
2022/05/27 03:24:21;;;;;;;2.45;1.52;;;11.00;99.90;;;;;;5092636;28;20073;-64
2022/05/27 03:27:03;;;;;;;2.90;1.85;;;11.00;99.90;;;;;;5092648;28;20101;-64
2022/05/27 03:29:50;;;;;;;3.95;1.48;;;11.00;99.90;;;;;;5092350;28;20036;-64
2022/05/27 03:32:47;;;;;;;2.55;1.60;;;11.10;99.90;;;;;;5091693;28;20067;-64
2022/05/27 03:35:39;;;;;;;6.57;1.70;;;11.00;99.90;;;;;;5072290;28;20044;-64
2022/05/27 03:38:49;;;;;;;3.13;2.50;;;11.00;99.90;;;;;;5072269;28;20496;-64
2022/05/27 03:41:19;;;;;;;;;;;10.80;99.90;;;;;;5041759;28;20060;-63
2022/05/27 03:43:47;;;;;;;4.68;2.20;;;10.60;99.90;;;;;;5092332;28;19924;-64
2022/05/27 03:46:27;;;;;;;3.03;1.50;;;10.60;99.90;;;;;;5091201;28;20157;-64
2022/05/27 03:48:54;;;;;;;3.47;2.40;;;10.50;99.90;;;;;;5091870;28;20089;-64
2022/05/27 03:51:30;;;;;;;3.70;2.13;;;10.50;99.90;;;;;;5091571;28;20496;-64
2022/05/27 03:54:03;;;;;;;3.33;2.17;;;10.50;99.90;;;;;;5092562;28;20407;-64
2022/05/27 03:56:43;;;;;;;3.13;2.08;;;10.50;99.90;;;;;;5091273;28;20039;-64
2022/05/27 03:59:12;;;;;;;3.33;2.03;;;10.50;99.90;;;;;;5092028;28;20044;-64
2022/05/27 04:01:42;;;;;;;4.50;2.20;;;10.60;99.90;;;;;;5091637;28;20052;-64
2022/05/27 04:04:12;;;;;;;3.35;1.98;;;10.70;99.90;;;;;;5091018;28;20040;-64
2022/05/27 04:06:39;;;;;;;3.78;2.88;;;10.80;99.90;;;;;;5091749;28;20103;-64
2022/05/27 04:09:06;;;;;;;3.13;2.17;;;10.80;99.90;;;;;;5091768;28;20454;-64
2022/05/27 04:11:33;;;;;;;2.83;1.60;;;10.80;99.90;;;;;;5090101;28;20066;-64
2022/05/27 04:14:00;;;;;;;4.13;2.00;;;10.90;99.90;;;;;;5090372;28;20036;-64
2022/05/27 04:16:27;;;;;;;7.78;1.90;;;10.80;99.90;;;;;;5091739;28;20040;-64
2022/05/27 04:18:54;;;;;;;2.05;1.70;;;10.80;99.90;;;;;;5091689;28;20048;-64
2022/05/27 04:21:20;;;;;;;2.72;2.10;;;10.90;99.90;;;;;;5090082;28;20511;-64
2022/05/27 04:23:47;;;;;;;3.90;2.75;;;10.90;99.90;;;;;;5091676;28;20044;-64
2022/05/27 04:26:14;;;;;;;4.70;1.85;;;11.00;99.90;;;;;;5091567;28;20446;-63
2022/05/27 04:28:41;;;;;;;5.45;2.47;;;11.00;99.90;;;;;;5090235;28;20109;-64
2022/05/27 04:31:07;;;;;;;4.20;2.33;;;11.00;99.90;;;;;;5091223;28;20065;-64
2022/05/27 04:33:34;;;;;;;6.72;2.15;;;11.10;99.90;;;;;;5091401;28;20052;-63
2022/05/27 04:36:02;;;;;;;3.30;2.78;;;11.20;99.90;;;;;;5090939;28;20040;-63
2022/05/27 04:38:30;;;;;;;6.38;3.47;;;11.20;99.90;;;;;;5091386;28;20044;-64
2022/05/27 04:40:57;;;;;;;3.97;2.03;;;11.20;99.90;;;;;;5089206;28;20044;-64
2022/05/27 04:43:23;;;;;;;4.00;1.75;;;11.20;99.90;;;;;;5090780;28;20040;-64
2022/05/27 04:45:50;;;;;;;2.35;1.60;;;11.30;99.90;;;;;;5090323;28;20044;-64
2022/05/27 04:48:18;;;;;;;8.40;2.00;;;11.40;99.90;;;;;;5090727;28;20489;-64
2022/05/27 04:50:46;;;;;;;6.03;1.90;;;11.50;99.90;;;;;;5090357;28;20036;-64
2022/05/27 04:53:13;;;;;;;7.45;1.90;;;11.60;99.90;;;;;;5090591;28;20048;-64
2022/05/27 04:55:42;;;;;;;9.10;2.17;;;11.70;99.90;;;;;;5089968;28;20040;-63
2022/05/27 04:58:11;;;;;;;4.57;2.10;;;11.60;99.90;;;;;;5090662;28;20090;-64
2022/05/27 05:00:43;;;;;;;7.28;2.42;;;11.60;99.90;;;;;;5090113;28;20044;-64
2022/05/27 05:03:11;;;;;;;7.63;2.80;;;11.70;99.90;;;;;;5089550;28;20132;-64
2022/05/27 05:05:39;;;;;;;4.07;2.28;;;11.80;99.90;;;;;;5090793;28;20097;-64
2022/05/27 05:08:18;;;;;;;3.22;2.33;;;11.80;99.90;;;;;;5090931;28;20511;-64
2022/05/27 05:10:45;;;;;;;4.10;2.50;;;11.80;99.90;;;;;;5089402;28;20044;-64
2022/05/27 05:13:11;;;;;;;3.25;2.67;;;11.90;99.90;;;;;;5090637;28;20036;-64
2022/05/27 05:15:38;;;;;;;4.03;2.90;;;12.00;99.90;;;;;;5091321;28;20158;-64
2022/05/27 05:18:06;;;;;;;8.13;2.85;;;12.10;99.90;;;;;;5090996;28;20484;-64
2022/05/27 05:20:33;;;;;;;4.82;2.95;;;12.20;99.90;;;;;;5089081;28;20120;-64
2022/05/27 05:23:01;;;;;;;3.58;1.92;;;12.50;99.90;;;;;;5093607;28;20384;-64
2022/05/27 05:25:28;;;;;;;3.30;2.30;;;12.50;99.90;;;;;;5094994;28;20090;-64
2022/05/27 05:27:55;;;;;;;;;;;12.40;99.90;;;;;;5095211;28;20055;-64
2022/05/27 05:30:27;;;;;;;3.80;1.65;;;12.40;99.90;;;;;;5103593;22;20342;-65
2022/05/27 05:33:00;;;;;;;1.70;1.60;;;12.50;99.90;;;;;;5071336;28;20086;-65
2022/05/27 05:35:42;;;;;;;5.10;1.88;;;12.50;99.90;;;;;;5047587;28;20044;-65
2022/05/27 05:38:09;;;;;;;2.92;1.73;;;12.60;99.90;;;;;;5093031;28;20040;-65
2022/05/27 05:40:37;;;;;;;5.50;1.70;;;12.70;99.90;;;;;;5093298;28;20040;-65
2022/05/27 05:43:04;;;;;;;1.65;1.38;;;12.70;99.90;;;;;;5092078;28;20385;-65
2022/05/27 05:45:31;;;;;;;2.50;1.58;;;12.90;99.90;;;;;;5093343;28;20043;-65
2022/05/27 05:47:58;;;;;;;5.03;2.30;;;13.00;99.90;;;;;;5091383;28;20442;-65
2022/05/27 05:50:25;;;;;;;4.13;2.60;;;13.10;99.90;;;;;;5093038;28;20036;-66
2022/05/27 05:52:52;;;;;;;5.15;2.78;;;13.20;99.90;;;;;;5091334;28;20089;-66
2022/05/27 05:55:19;;;;;;;6.25;2.40;;;13.30;99.90;;;;;;5093684;28;20598;-65
2022/05/27 05:57:48;;;;;;;3.58;2.50;;;13.40;99.90;;;;;;5093313;28;20048;-66
2022/05/27 06:00:23;;;;;;;5.60;2.55;;;13.60;99.90;;;;;;5090899;28;20438;-65
2022/05/27 06:02:50;;;;;;;8.25;3.17;;;13.80;99.90;;;;;;5092465;28;20433;-65
2022/05/27 06:05:17;;;;;;;5.32;2.53;;;13.90;99.90;;;;;;5093309;28;20053;-64
2022/05/27 06:07:44;;;;;;;;;;;14.00;99.90;;;;;;5093343;28;20260;-66
2022/05/27 06:10:13;;;;;;;4.30;2.13;;;14.20;99.90;;;;;;5091813;28;19962;-65
2022/05/27 06:12:40;;;;;;;8.23;3.05;;;14.30;99.90;;;;;;5092843;28;20096;-65
2022/05/27 06:15:22;;;;;;;4.90;2.90;;;14.30;99.90;;;;;;5091448;28;20055;-65
2022/05/27 06:17:49;;;;;;;6.32;2.42;;;14.40;99.90;;;;;;5074890;28;20507;-65
2022/05/27 06:20:16;;;;;;;;;;;14.50;99.90;;;;;;5090527;28;20094;-65
2022/05/27 06:22:43;;;;;;;7.32;2.97;;;14.50;99.90;;;;;;5093485;28;20322;-65
2022/05/27 06:25:11;;;;;;;5.82;2.40;;;14.60;99.90;;;;;;5093230;28;20044;-65
2022/05/27 06:27:38;;;;;;;5.57;2.33;;;14.80;99.90;;;;;;5093207;28;20515;-65
2022/05/27 06:35:37;;;;;;;4.72;2.35;;;15.40;99.90;;;;;;5093012;28;20097;-65
2022/05/27 06:38:04;;;;;;;6.15;2.35;;;15.50;99.90;;;;;;5085053;28;20056;-65
2022/05/27 06:40:31;;;;;;;2.80;2.10;;;15.70;99.90;;;;;;5093316;28;20389;-65
2022/05/27 06:42:58;;;;;;;5.95;2.17;;;15.70;99.90;;;;;;5093159;28;20377;-65
2022/05/27 06:45:25;;;;;;;5.95;2.63;;;15.80;99.90;;;;;;5085604;28;20040;-65
2022/05/27 06:47:52;;;;;;;2.85;2.28;;;15.80;99.90;;;;;;5092645;28;20062;-65
2022/05/27 06:50:19;;;;;;;6.22;2.47;;;15.70;99.90;;;;;;5092757;28;20044;-65
2022/05/27 06:52:46;;;;;;;4.63;2.15;;;15.60;99.90;;;;;;5092769;28;20119;-65
2022/05/27 06:55:14;;;;;;;4.40;2.60;;;15.60;99.90;;;;;;5087296;28;20041;-65
2022/05/27 06:57:42;;;;;;;8.05;3.05;;;15.60;99.90;;;;;;5090839;28;20094;-65
2022/05/27 07:00:11;;;;;;;3.45;2.33;;;15.60;99.90;;;;;;5092685;28;20101;-66
2022/05/27 07:02:38;;;;;;;7.18;2.83;;;15.70;99.90;;;;;;5084227;28;20485;-65
2022/05/27 07:05:05;;;;;;;6.18;2.53;;;15.90;99.90;;;;;;5093027;28;20048;-66
2022/05/27 07:07:32;;;;;;;;;;;15.90;99.90;;;;;;5093332;28;20051;-66
2022/05/27 07:09:58;;;;;;;4.47;2.80;;;15.90;99.90;;;;;;5091964;28;19923;-65
2022/05/27 07:12:26;;;;;;;5.05;2.67;;;16.10;99.90;;;;;;5085355;28;20045;-65
2022/05/27 07:14:52;;;;;;;7.00;2.20;;;16.10;99.90;;;;;;5092257;28;20044;-65
2022/05/27 07:17:20;;;;;;;;;;;16.20;99.90;;;;;;5092969;28;20553;-65
2022/05/27 07:19:46;;;;;;;7.30;2.72;;;16.40;99.90;;;;;;5092086;28;19966;-65
2022/05/27 07:22:14;;;;;;;7.50;2.95;;;16.60;99.90;;;;;;5083306;28;20105;-65
2022/05/27 07:24:42;;;;;;;8.27;1.88;;;16.90;99.90;;;;;;5084133;28;20055;-65
2022/05/27 07:27:09;;;;;;;3.58;2.20;;;17.00;99.90;;;;;;5092632;28;20043;-65
2022/05/27 07:29:41;;;;;;;3.35;2.13;;;16.80;99.90;;;;;;5090969;28;20044;-63
2022/05/27 07:32:08;;;;;;;2.47;2.00;;;16.80;99.90;;;;;;5086619;28;20044;-64
2022/05/27 07:34:35;;;;;;;4.07;2.17;;;16.70;99.90;;;;;;5088153;28;20043;-65
2022/05/27 07:37:02;;;;;;;4.40;2.55;;;16.80;99.90;;;;;;5091851;28;20085;-65
2022/05/27 07:39:28;;;;;;;5.32;2.05;;;16.90;99.90;;;;;;5090861;28;20070;-65
2022/05/27 07:41:55;;;;;;;5.43;2.22;;;17.00;99.90;;;;;;5082476;28;20059;-65
2022/05/27 07:44:22;;;;;;;5.35;2.15;;;17.10;99.90;;;;;;5090796;28;20040;-65
2022/05/27 07:46:53;;;;;;;3.40;2.00;;;17.30;99.90;;;;;;5089911;28;20450;-65
2022/05/27 07:49:21;;;;;;;2.65;2.30;;;17.30;99.90;;;;;;5083536;28;20487;-65
2022/05/27 07:52:05;;;;;;;4.90;2.20;;;17.30;99.90;;;;;;5091788;28;20048;-65
2022/05/27 07:54:32;;;;;;;3.38;1.95;;;17.40;99.90;;;;;;5091858;28;20059;-65
2022/05/27 07:56:59;;;;;;;4.82;2.15;;;17.60;99.90;;;;;;5087484;28;20090;-65
2022/05/27 07:59:27;;;;;;;4.50;1.92;;;17.80;99.90;;;;;;5087745;28;20051;-65
2022/05/27 08:01:54;;;;;;;8.52;2.30;;;17.80;99.90;;;;;;5091465;28;20044;-65
2022/05/27 08:04:21;;;;;;;4.60;2.05;;;17.90;99.90;;;;;;5091143;28;20040;-65
2022/05/27 08:06:48;;;;;;;2.92;1.80;;;18.00;99.90;;;;;;5083327;28;20039;-65
2022/05/27 08:09:15;;;;;;;4.30;2.10;;;18.20;99.90;;;;;;5091654;28;20044;-65
2022/05/27 08:11:42;;;;;;;3.65;1.55;;;18.30;99.90;;;;;;5091352;28;20558;-65
2022/05/27 08:14:09;;;;;;;4.20;1.85;;;18.40;99.90;;;;;;5086027;28;20074;-65
2022/05/27 08:16:36;;;;;;;3.78;1.40;;;18.60;99.90;;;;;;5088777;28;20048;-65
2022/05/27 08:19:03;;;;;;;3.22;1.40;;;18.70;99.90;;;;;;5091399;28;20054;-65
2022/05/27 08:21:30;;;;;;;7.47;1.83;;;18.80;99.90;;;;;;5090633;28;20101;-65
2022/05/27 08:23:57;;;;;;;3.10;1.70;;;18.90;99.90;;;;;;5082821;28;20051;-65
2022/05/27 08:26:24;;;;;;;4.57;1.80;;;19.00;99.90;;;;;;5091569;28;20047;-65
2022/05/27 08:28:50;;;;;;;5.78;1.60;;;19.10;99.90;;;;;;5091297;28;20070;-65
2022/05/27 08:31:17;;;;;;;6.20;1.85;;;19.10;99.90;;;;;;5084161;28;20037;-64
2022/05/27 08:39:16;;;;;;;2.28;1.27;;;19.70;99.90;;;;;;5072863;28;20044;-65
2022/05/27 08:41:55;;;;;;;;;;;19.90;99.90;;;;;;5082679;28;20063;-65
2022/05/27 08:44:36;;;;;;;3.38;1.38;;;20.10;99.90;;;;;;5091444;28;19920;-65
2022/05/27 08:47:28;;;;;;;1.73;0.90;;;20.20;99.90;;;;;;5091419;28;20040;-65
2022/05/27 08:50:18;;;;;;;5.70;1.23;;;20.30;99.90;;;;;;5082033;28;20040;-65
2022/05/27 08:52:48;;;;;;;1.52;1.05;;;20.30;99.90;;;;;;5080877;28;20535;-65
2022/05/27 09:01:23;;;;;;;3.03;1.30;;;20.90;99.90;;;;;;5074623;28;20093;-65
2022/05/27 09:04:00;;;;;;;3.80;0.90;;;21.10;99.90;;;;;;5074892;28;20048;-65
2022/05/27 09:06:40;;;;;;;4.32;1.17;;;21.20;99.90;;;;;;5086972;28;20051;-65
2022/05/27 09:09:17;;;;;;;3.03;0.90;;;21.30;99.90;;;;;;5074974;28;20537;-65
2022/05/27 09:11:52;;;;;;;3.72;1.40;;;21.40;99.90;;;;;;5074311;28;20389;-65
2022/05/27 09:14:25;;;;;;;2.00;1.20;;;21.40;99.90;;;;;;5077520;28;20105;-65
2022/05/27 09:17:02;;;;;;;9.65;1.55;;;21.40;99.90;;;;;;5086626;28;20048;-65
2022/05/27 09:20:23;;;;;;;2.67;1.30;;;21.40;99.90;;;;;;5094891;28;20048;-65
2022/05/27 09:23:04;;;;;;;3.28;1.23;;;21.50;99.90;;;;;;5083524;28;20470;-65
2022/05/27 09:25:54;;;;;;;1.73;1.23;;;21.70;99.90;;;;;;5068155;28;20070;-65
2022/05/27 09:28:42;;;;;;;3.00;1.10;;;22.00;99.90;;;;;;5076951;28;20097;-65
2022/05/27 09:31:12;;;;;;;1.38;1.25;;;22.10;99.90;;;;;;5093670;28;20048;-65
2022/05/27 09:33:41;;;;;;;1.20;1.10;;;22.00;99.90;;;;;;5086067;28;20052;-65
2022/05/27 09:36:17;;;;;;;2.50;1.42;;;21.80;99.90;;;;;;5094681;28;20097;-65
2022/05/27 09:38:50;;;;;;;3.17;1.17;;;21.80;99.90;;;;;;5094723;28;20056;-65
2022/05/27 09:41:33;;;;;;;1.50;1.10;;;21.80;99.90;;;;;;5087116;28;20049;-65
2022/05/27 09:44:22;;;;;;;6.13;1.27;;;21.70;99.90;;;;;;5074338;28;20048;-65
2022/05/27 09:46:50;;;;;;;4.82;1.00;;;21.70;99.90;;;;;;5074288;28;20044;-65
2022/05/27 09:49:17;;;;;;;1.70;1.23;;;22.00;99.90;;;;;;5078576;28;20067;-65
2022/05/27 09:51:44;;;;;;;3.75;1.10;;;22.00;99.90;;;;;;5085379;28;20052;-65
2022/05/27 09:54:20;;;;;;;3.10;1.33;;;22.00;99.90;;;;;;5094482;28;20488;-65
2022/05/27 09:57:13;;;;;;;1.70;1.50;;;22.10;99.90;;;;;;5094333;28;20063;-65
2022/05/27 09:59:44;;;;;;;2.45;1.30;;;22.10;99.90;;;;;;5092276;28;20428;-65
2022/05/27 10:02:16;;;;;;;3.13;1.13;;;22.10;99.90;;;;;;5087669;28;20562;-65
2022/05/27 10:04:57;;;;;;;4.80;1.42;;;22.00;99.90;;;;;;5094389;28;20407;-65
2022/05/27 10:07:28;;;;;;;3.28;1.27;;;22.00;99.90;;;;;;5092653;28;20032;-65
2022/05/27 10:09:55;;;;;;;1.20;1.10;;;22.10;99.90;;;;;;5085201;28;20085;-65
2022/05/27 10:12:32;;;;;;;2.50;1.23;;;22.10;99.90;;;;;;5093800;28;20032;-64
2022/05/27 10:15:00;;;;;;;7.40;1.42;;;22.20;99.90;;;;;;5093710;28;20480;-65
2022/05/27 10:17:32;;;;;;;4.38;1.20;;;22.10;99.90;;;;;;5085119;28;20040;-65
2022/05/27 10:20:22;;;;;;;2.13;1.10;;;22.20;99.90;;;;;;5093438;28;20070;-65
2022/05/27 10:23:07;;;;;;;1.35;0.88;;;22.10;99.90;;;;;;5093011;28;20107;-65
2022/05/27 10:25:41;;;;;;;2.42;1.17;;;22.30;99.90;;;;;;5085405;28;20039;-65
2022/05/27 10:28:10;;;;;;;1.52;1.08;;;22.30;99.90;;;;;;5094074;28;20051;-65
2022/05/27 10:30:50;;;;;;;1.85;1.20;;;22.40;99.90;;;;;;5093218;28;20055;-65
2022/05/27 10:33:23;;;;;;;4.22;1.13;;;22.80;99.90;;;;;;5092898;28;20054;-65
2022/05/27 10:35:52;;;;;;;2.47;1.13;;;22.90;99.90;;;;;;5085108;28;20044;-65
2022/05/27 10:38:43;;;;;;;4.63;1.50;;;23.10;99.90;;;;;;5093870;28;20044;-65
2022/05/27 10:41:34;;;;;;;2.95;1.25;;;23.00;99.90;;;;;;5074440;28;20101;-65
2022/05/27 10:44:21;;;;;;;4.32;1.40;;;23.00;99.90;;;;;;5081540;28;20067;-65
2022/05/27 10:46:53;;;;;;;6.00;1.30;;;23.20;99.90;;;;;;5072941;28;20041;-65
2022/05/27 10:49:38;;;;;;;1.58;1.02;;;23.10;99.90;;;;;;5073063;28;20424;-64
2022/05/27 10:52:18;;;;;;;1.60;1.15;;;23.00;99.90;;;;;;5080772;28;20051;-64
2022/05/27 10:55:02;;;;;;;3.80;1.30;;;22.70;99.90;;;;;;5073043;28;20098;-65
2022/05/27 11:03:52;;;;;;;1.83;1.00;;;22.40;99.90;;;;;;5093035;28;20055;-65
2022/05/27 11:06:45;;;;;;;3.45;1.20;;;22.50;99.90;;;;;;5092984;28;20052;-65
2022/05/27 11:09:29;;;;;;;3.25;1.30;;;22.40;99.90;;;;;;5061704;28;20451;-64
2022/05/27 11:12:26;;;;;;;2.05;1.02;;;22.40;99.90;;;;;;5092265;28;20052;-65
2022/05/27 11:15:11;;;;;;;1.20;0.90;;;22.50;99.90;;;;;;5092659;28;20040;-65
2022/05/27 11:18:00;;;;;;;3.33;1.02;;;22.60;99.90;;;;;;5084043;28;20036;-65
2022/05/27 11:21:04;;;;;;;2.90;0.85;;;22.80;99.90;;;;;;5092172;28;20110;-65
2022/05/27 11:23:46;;;;;;;3.55;1.23;;;22.90;99.90;;;;;;5092139;28;20044;-65
2022/05/27 11:26:37;;;;;;;3.25;1.00;;;23.10;99.90;;;;;;5080746;28;20416;-65
2022/05/27 11:29:16;;;;;;;3.40;1.42;;;23.30;99.90;;;;;;5072011;28;20082;-66
2022/05/27 11:31:56;;;;;;;2.28;1.00;;;23.60;99.90;;;;;;5109112;28;20442;-63
2022/05/27 11:34:28;;;;;;;0.80;0.80;;;23.80;99.90;;;;;;5111197;28;20085;-63
2022/05/27 11:37:15;;;;;;;2.05;1.00;;;24.00;99.90;;;;;;5112746;28;20047;-63
2022/05/27 11:40:10;;;;;;;0.80;0.80;;;23.90;99.90;;;;;;5112584;28;20092;-63
2022/05/27 11:43:00;;;;;;;2.17;1.10;;;23.70;99.90;;;;;;5109503;28;20096;-63
2022/05/27 11:45:29;;;;;;;4.22;1.33;;;23.70;99.90;;;;;;5112655;28;20040;-62
2022/05/27 11:48:02;;;;;;;1.63;0.90;;;23.60;99.90;;;;;;5112591;27;20047;-63
2022/05/27 11:50:53;;;;;;;4.82;1.00;;;23.50;99.90;;;;;;5110943;28;20039;-63
2022/05/27 11:53:47;;;;;;;2.78;1.00;;;23.30;99.90;;;;;;5107004;28;20044;-63
2022/05/27 11:56:21;;;;;;;4.15;1.00;;;23.30;99.90;;;;;;5112418;28;20036;-63
2022/05/27 11:59:34;;;;;;;4.30;1.20;;;23.30;99.90;;;;;;5111047;28;20039;-63
2022/05/27 12:02:04;;;;;;;2.45;0.88;;;23.40;99.90;;;;;;5089272;28;20051;-63
2022/05/27 12:04:43;;;;;;;2.53;0.85;;;23.40;99.90;;;;;;5112213;28;20100;-63
2022/05/27 12:07:21;;;;;;;1.85;0.98;;;23.30;99.90;;;;;;5111668;28;20112;-63
2022/05/27 12:09:54;;;;;;;0.88;0.80;;;23.40;99.90;;;;;;5111879;28;20051;-63
2022/05/27 12:12:35;;;;;;;3.10;0.90;;;23.30;99.90;;;;;;5112104;28;20051;-63
2022/05/27 12:15:06;;;;;;;1.15;0.77;;;23.30;99.90;;;;;;5109487;28;20051;-63
2022/05/27 12:17:40;;;;;;;3.70;0.85;;;23.40;99.90;;;;;;5108409;28;20032;-62
2022/05/27 12:20:08;;;;;;;1.83;0.70;;;23.50;99.90;;;;;;5106582;28;20039;-63
2022/05/27 12:22:35;;;;;;;5.78;0.80;;;23.70;99.90;;;;;;5091746;28;20044;-63
2022/05/27 12:25:04;;;;;;;2.03;0.85;;;23.80;99.90;;;;;;5104134;28;20097;-63
2022/05/27 12:27:33;;;;;;;5.22;0.77;;;23.80;99.90;;;;;;5112278;28;20059;-63
2022/05/27 12:30:01;;;;;;;2.13;0.80;;;23.80;99.90;;;;;;5111279;28;20477;-63
2022/05/27 12:32:29;;;;;;;0.98;0.90;;;23.70;99.90;;;;;;5110451;28;20047;-63
2022/05/27 12:35:20;;;;;;;2.47;0.80;;;23.80;99.90;;;;;;5111666;28;20047;-63
2022/05/27 12:37:51;;;;;;;2.80;0.80;;;24.00;99.90;;;;;;5111919;28;20583;-63
2022/05/27 12:40:33;;;;;;;0.82;0.63;;;23.90;99.90;;;;;;5110115;28;20039;-64
2022/05/27 12:43:10;;;;;;;5.22;1.60;;;23.50;99.90;;;;;;5103566;28;20077;-63
2022/05/27 12:45:44;;;;;;;;;;;23.30;99.90;;;;;;5112313;28;20047;-64
2022/05/27 12:48:27;;;;;;;2.22;0.90;;;23.50;99.90;;;;;;5111105;28;19923;-63
2022/05/27 12:50:56;;;;;;;1.42;0.70;;;23.40;99.90;;;;;;5111185;28;20053;-63
2022/05/27 12:53:45;;;;;;;0.90;0.68;;;23.50;99.90;;;;;;5111699;28;20048;-63
2022/05/27 13:02:18;;;;;;;4.57;0.70;;;23.50;99.90;;;;;;5111558;28;20453;-63
2022/05/27 13:04:49;;;;;;;3.05;0.90;;;23.20;99.90;;;;;;5110417;28;20116;-63
2022/05/27 13:07:41;;;;;;;1.02;0.88;;;23.10;99.90;;;;;;5111391;28;20047;-63
2022/05/27 13:10:17;;;;;;;2.67;0.70;;;22.90;99.90;;;;;;5111189;28;20047;-64
2022/05/27 13:12:53;;;;;;;3.33;0.90;;;23.20;99.90;;;;;;5110369;28;20044;-63
2022/05/27 13:15:33;;;;;;;1.35;0.98;;;23.20;99.90;;;;;;5111212;28;20043;-63
2022/05/27 13:18:26;;;;;;;1.73;0.82;;;23.00;99.90;;;;;;5111446;28;20050;-63
2022/05/27 13:21:32;;;;;;;2.13;0.80;;;23.10;99.90;;;;;;5110012;28;20040;-64
2022/05/27 13:24:22;;;;;;;1.95;0.90;;;23.20;99.90;;;;;;5102996;28;20122;-63
2022/05/27 13:26:56;;;;;;;2.17;0.80;;;23.10;99.90;;;;;;5111681;28;20039;-63
2022/05/27 13:29:25;;;;;;;3.13;0.80;;;23.10;99.90;;;;;;5110928;28;20491;-63
2022/05/27 13:32:06;;;;;;;3.05;1.10;;;23.00;99.90;;;;;;5109741;28;20092;-63
2022/05/27 13:34:48;;;;;;;1.02;0.75;;;22.60;99.90;;;;;;5111173;28;20609;-63
2022/05/27 13:37:39;;;;;;;2.08;0.80;;;22.50;99.90;;;;;;5111130;28;20048;-63
2022/05/27 13:40:31;;;;;;;3.45;0.88;;;22.40;99.90;;;;;;5109905;28;20039;-63
2022/05/27 13:43:19;;;;;;;2.65;1.00;;;22.80;99.90;;;;;;5103878;28;20043;-63
2022/05/27 13:45:56;;;;;;;3.20;1.20;;;23.20;99.90;;;;;;5114684;28;20078;-63
2022/05/27 13:48:32;;;;;;;2.28;0.75;;;23.30;99.90;;;;;;5114923;28;20057;-63
2022/05/27 13:51:15;;;;;;;3.95;1.00;;;23.20;99.90;;;;;;5087313;28;20150;-63
2022/05/27 13:53:44;;;;;;;2.00;0.82;;;23.00;99.90;;;;;;5114482;27;20131;-64
2022/05/27 13:56:14;;;;;;;3.25;0.90;;;23.20;99.90;;;;;;5115075;28;20067;-63
2022/05/27 13:59:02;;;;;;;4.55;1.10;;;22.90;99.90;;;;;;5113542;28;20051;-63
2022/05/27 14:01:39;;;;;;;1.27;0.90;;;23.10;99.90;;;;;;5114241;28;20453;-63
2022/05/27 14:04:09;;;;;;;2.35;1.30;;;23.40;99.90;;;;;;5114413;28;20059;-63
2022/05/27 14:06:36;;;;;;;3.78;0.80;;;23.60;99.90;;;;;;5113725;28;20539;-63